createdAt,value
2023-05-01T00:01:29.100Z,94630.38
2023-05-01T00:03:55.508Z,94626.94
2023-05-01T00:06:22.035Z,94621.03
2023-05-01T00:08:48.420Z,94622.06
2023-05-01T00:11:14.737Z,94617.16
2023-05-01T00:13:41.033Z,94606.16
2023-05-01T00:16:07.338Z,94606.38
2023-05-01T00:18:33.670Z,94610.00
2023-05-01T00:20:59.968Z,94598.22
2023-05-01T00:23:26.279Z,94604.72
2023-05-01T00:25:52.584Z,94605.97
2023-05-01T00:28:18.913Z,94604.13
2023-05-01T00:30:45.241Z,94595.16
2023-05-01T00:33:11.578Z,94597.41
2023-05-01T00:35:37.936Z,94595.56
2023-05-01T00:38:04.267Z,94594.34
2023-05-01T00:40:30.608Z,94590.66
2023-05-01T00:42:56.926Z,94587.41
2023-05-01T00:45:23.246Z,94583.94
2023-05-01T00:47:49.660Z,94575.78
2023-05-01T00:50:16.015Z,94572.75
2023-05-01T00:52:42.341Z,94569.31
2023-05-01T00:55:08.689Z,94574.81
2023-05-01T00:57:35.000Z,94577.03
2023-05-01T01:00:01.326Z,94563.19
2023-05-01T01:02:27.659Z,94562.97
2023-05-01T01:04:54.145Z,94565.41
2023-05-01T01:07:20.646Z,94562.97
2023-05-01T01:09:46.979Z,94565.03
2023-05-01T01:12:13.328Z,94557.28
2023-05-01T01:14:39.639Z,94551.38
2023-05-01T01:17:06.088Z,94551.59
2023-05-01T01:19:32.480Z,94557.47
2023-05-01T01:21:58.781Z,94547.69
2023-05-01T01:24:25.102Z,94546.50
2023-05-01T01:26:51.425Z,94539.97
2023-05-01T01:29:17.749Z,94545.25
2023-05-01T01:31:44.227Z,94539.56
2023-05-01T01:34:10.725Z,94542.81
2023-05-01T01:36:37.052Z,94539.53
2023-05-01T01:39:03.368Z,94547.69
2023-05-01T01:41:29.692Z,94543.00
2023-05-01T01:43:55.996Z,94544.88
2023-05-01T01:46:22.344Z,94542.63
2023-05-01T01:48:48.693Z,94551.59
2023-05-01T01:51:15.013Z,94548.53
2023-05-01T01:53:41.317Z,94551.97
2023-05-01T01:56:07.622Z,94550.94
2023-05-01T01:58:33.929Z,94547.69
2023-05-01T02:01:00.251Z,94553.16
2023-05-01T02:03:26.797Z,94547.03
2023-05-01T02:05:53.280Z,94542.16
2023-05-01T02:08:19.600Z,94544.00
2023-05-01T02:10:45.917Z,94544.59
2023-05-01T02:13:12.277Z,94538.09
2023-05-01T02:15:38.606Z,94546.41
2023-05-01T02:18:04.975Z,94546.41
2023-05-01T02:20:31.364Z,94540.94
2023-05-01T02:22:57.704Z,94541.94
2023-05-01T02:25:25.071Z,94543.56
2023-05-01T02:27:51.389Z,94539.28
2023-05-01T02:30:17.728Z,94547.81
2023-05-01T02:32:44.134Z,94534.38
2023-05-01T02:35:10.521Z,94541.31
2023-05-01T02:37:36.844Z,94547.44
2023-05-01T02:40:03.170Z,94546.63
2023-05-01T02:42:29.498Z,94545.41
2023-05-01T02:44:55.821Z,94541.72
2023-05-01T02:47:22.200Z,94541.13
2023-05-01T02:49:48.563Z,94541.72
2023-05-01T02:52:14.862Z,94541.31
2023-05-01T02:54:41.211Z,94537.63
2023-05-01T02:57:07.538Z,94541.09
2023-05-01T02:59:33.867Z,94538.47
2023-05-01T03:02:00.178Z,94536.81
2023-05-01T03:04:26.556Z,94536.00
2023-05-01T03:06:52.942Z,94526.25
2023-05-01T03:09:19.262Z,94522.38
2023-05-01T03:11:45.565Z,94522.00
2023-05-01T03:14:11.884Z,94529.28
2023-05-01T03:16:38.323Z,94526.66
2023-05-01T03:19:04.690Z,94523.41
2023-05-01T03:21:31.002Z,94518.50
2023-05-01T03:23:57.317Z,94515.47
2023-05-01T03:26:23.636Z,94516.88
2023-05-01T03:28:49.968Z,94508.97
2023-05-01T03:31:16.298Z,94514.41
2023-05-01T03:33:42.602Z,94510.56
2023-05-01T03:36:08.906Z,94513.78
2023-05-01T03:38:35.224Z,94508.50
2023-05-01T03:41:01.536Z,94505.63
2023-05-01T03:43:27.854Z,94508.28
2023-05-01T03:45:54.188Z,94508.91
2023-05-01T03:48:20.525Z,94510.75
2023-05-01T03:50:46.869Z,94509.72
2023-05-01T03:53:13.173Z,94508.31
2023-05-01T03:55:39.496Z,94508.88
2023-05-01T03:58:05.852Z,94511.88
2023-05-01T04:00:32.172Z,94513.69
2023-05-01T04:02:58.592Z,94514.84
2023-05-01T04:05:25.067Z,94517.13
2023-05-01T04:07:51.391Z,94518.53
2023-05-01T04:10:17.725Z,94519.72
2023-05-01T04:12:44.034Z,94520.28
2023-05-01T04:15:10.344Z,94522.34
2023-05-01T04:17:36.677Z,94520.94
2023-05-01T04:20:03.033Z,94509.78
2023-05-01T04:22:29.339Z,94514.00
2023-05-01T04:24:55.848Z,94515.81
2023-05-01T04:27:22.160Z,94517.44
2023-05-01T04:29:48.499Z,94517.81
2023-05-01T04:32:14.824Z,94524.94
2023-05-01T04:34:41.118Z,94524.31
2023-05-01T04:37:07.414Z,94530.53
2023-05-01T04:39:33.717Z,94526.97
2023-05-01T04:42:00.035Z,94536.72
2023-05-01T04:44:26.367Z,94538.34
2023-05-01T04:46:52.861Z,94529.44
2023-05-01T04:49:19.304Z,94536.59
2023-05-01T04:51:45.609Z,94529.03
2023-05-01T04:54:11.957Z,94520.09
2023-05-01T04:56:38.265Z,94530.09
2023-05-01T04:59:04.580Z,94524.44
2023-05-01T05:01:30.987Z,94529.88
2023-05-01T05:03:57.488Z,94537.56
2023-05-01T05:06:23.901Z,94536.16
2023-05-01T05:08:50.221Z,94538.41
2023-05-01T05:11:16.528Z,94539.06
2023-05-01T05:13:42.844Z,94537.44
2023-05-01T05:16:09.178Z,94541.56
2023-05-01T05:18:35.499Z,94547.81
2023-05-01T05:21:01.810Z,94552.66
2023-05-01T05:23:28.117Z,94547.50
2023-05-01T05:25:54.433Z,94552.59
2023-05-01T05:28:20.750Z,94562.34
2023-05-01T05:30:47.070Z,94570.53
2023-05-01T05:33:13.493Z,94561.19
2023-05-01T05:35:39.893Z,94553.28
2023-05-01T05:38:06.199Z,94556.94
2023-05-01T05:40:32.524Z,94559.63
2023-05-01T05:42:58.854Z,94555.97
2023-05-01T05:45:25.161Z,94563.91
2023-05-01T05:47:51.523Z,94560.69
2023-05-01T05:50:17.877Z,94561.13
2023-05-01T05:52:44.194Z,94561.75
2023-05-01T05:55:10.511Z,94564.38
2023-05-01T05:57:36.831Z,94566.16
2023-05-01T06:00:03.152Z,94568.16
2023-05-01T06:02:29.508Z,94563.09
2023-05-01T06:04:55.856Z,94556.22
2023-05-01T06:07:22.169Z,94559.47
2023-05-01T06:09:48.511Z,94557.88
2023-05-01T06:12:14.828Z,94558.06
2023-05-01T06:14:41.460Z,94553.59
2023-05-01T06:17:07.792Z,94556.91
2023-05-01T06:19:34.128Z,94549.78
2023-05-01T06:22:00.454Z,94553.88
2023-05-01T06:24:26.782Z,94551.03
2023-05-01T06:26:53.129Z,94556.13
2023-05-01T06:29:19.461Z,94554.72
2023-05-01T06:31:45.856Z,94553.09
2023-05-01T06:34:12.322Z,94562.91
2023-05-01T06:36:38.633Z,94561.22
2023-05-01T06:39:04.966Z,94574.63
2023-05-01T06:41:31.288Z,94575.66
2023-05-01T06:43:57.602Z,94579.53
2023-05-01T06:46:23.941Z,94579.13
2023-05-01T06:48:50.299Z,94584.81
2023-05-01T06:51:16.614Z,94579.31
2023-05-01T06:53:42.922Z,94578.72
2023-05-01T06:56:09.234Z,94587.06
2023-05-01T06:58:35.613Z,94584.03
2023-05-01T07:01:01.952Z,94583.63
2023-05-01T07:03:28.384Z,94582.63
2023-05-01T07:05:54.733Z,94586.72
2023-05-01T07:08:21.034Z,94593.31
2023-05-01T07:10:47.378Z,94595.97
2023-05-01T07:13:13.709Z,94599.63
2023-05-01T07:15:40.026Z,94594.75
2023-05-01T07:18:06.487Z,94594.72
2023-05-01T07:20:32.902Z,94591.44
2023-05-01T07:22:59.282Z,94601.84
2023-05-01T07:25:25.600Z,94603.66
2023-05-01T07:27:51.918Z,94601.63
2023-05-01T07:30:18.258Z,94601.19
2023-05-01T07:32:44.628Z,94596.28
2023-05-01T07:35:10.954Z,94599.09
2023-05-01T07:37:37.337Z,94597.06
2023-05-01T07:40:03.676Z,94592.81
2023-05-01T07:42:29.989Z,94594.44
2023-05-01T07:44:56.321Z,94598.94
2023-05-01T07:47:22.706Z,94596.09
2023-05-01T07:49:49.043Z,94593.03
2023-05-01T07:52:15.354Z,94597.31
2023-05-01T07:54:41.746Z,94592.19
2023-05-01T07:57:08.076Z,94594.44
2023-05-01T07:59:34.417Z,94605.44
2023-05-01T08:02:00.789Z,94607.91
2023-05-01T08:04:27.155Z,94607.75
2023-05-01T08:06:53.524Z,94612.84
2023-05-01T08:09:19.847Z,94614.28
2023-05-01T08:11:46.153Z,94612.63
2023-05-01T08:14:12.501Z,94613.47
2023-05-01T08:16:38.911Z,94614.69
2023-05-01T08:19:05.305Z,94615.31
2023-05-01T08:21:31.630Z,94624.28
2023-05-01T08:23:57.951Z,94620.81
2023-05-01T08:26:24.283Z,94619.56
2023-05-01T08:28:50.640Z,94617.75
2023-05-01T08:31:16.977Z,94628.13
2023-05-01T08:33:43.311Z,94629.78
2023-05-01T08:36:09.641Z,94615.72
2023-05-01T08:38:35.966Z,94624.88
2023-05-01T08:41:02.291Z,94622.03
2023-05-01T08:43:28.661Z,94629.78
2023-05-01T08:45:54.957Z,94628.97
2023-05-01T08:48:21.286Z,94628.34
2023-05-01T08:50:47.613Z,94630.97
2023-05-01T08:53:13.918Z,94623.44
2023-05-01T08:55:40.222Z,94621.38
2023-05-01T08:58:06.550Z,94626.06
2023-05-01T09:00:32.861Z,94626.47
2023-05-01T09:02:59.204Z,94624.63
2023-05-01T09:05:25.565Z,94624.44
2023-05-01T09:07:51.869Z,94627.06
2023-05-01T09:10:18.186Z,94627.50
2023-05-01T09:12:44.491Z,94627.28
2023-05-01T09:15:10.826Z,94627.28
2023-05-01T09:17:37.193Z,94633.00
2023-05-01T09:20:03.552Z,94630.97
2023-05-01T09:22:29.851Z,94629.75
2023-05-01T09:24:56.197Z,94627.69
2023-05-01T09:27:22.549Z,94628.13
2023-05-01T09:29:48.849Z,94635.25
2023-05-01T09:32:15.215Z,94629.13
2023-05-01T09:34:41.581Z,94628.50
2023-05-01T09:37:07.910Z,94631.13
2023-05-01T09:39:34.252Z,94636.22
2023-05-01T09:42:00.580Z,94633.78
2023-05-01T09:44:26.926Z,94637.59
2023-05-01T09:46:53.249Z,94632.72
2023-05-01T09:49:19.556Z,94636.16
2023-05-01T09:51:45.858Z,94645.75
2023-05-01T09:54:12.157Z,94635.88
2023-05-01T09:56:38.473Z,94645.81
2023-05-01T09:59:04.799Z,94640.25
2023-05-01T10:01:31.196Z,94633.47
2023-05-01T10:03:57.699Z,94641.97
2023-05-01T10:06:24.166Z,94640.94
2023-05-01T10:08:50.649Z,94643.34
2023-05-01T10:11:17.016Z,94638.81
2023-05-01T10:13:43.346Z,94644.28
2023-05-01T10:16:09.687Z,94646.88
2023-05-01T10:18:35.993Z,94644.72
2023-05-01T10:21:02.478Z,94651.88
2023-05-01T10:23:28.803Z,94653.28
2023-05-01T10:25:55.144Z,94654.91
2023-05-01T10:28:21.462Z,94654.03
2023-05-01T10:30:47.769Z,94653.00
2023-05-01T10:33:14.237Z,94652.16
2023-05-01T10:35:40.705Z,94654.44
2023-05-01T10:38:07.050Z,94647.22
2023-05-01T10:40:33.364Z,94657.47
2023-05-01T10:42:59.692Z,94657.66
2023-05-01T10:45:25.997Z,94655.41
2023-05-01T10:47:52.361Z,94654.91
2023-05-01T10:50:18.754Z,94655.13
2023-05-01T10:52:45.083Z,94660.31
2023-05-01T10:55:11.415Z,94660.03
2023-05-01T10:57:37.725Z,94661.47
2023-05-01T11:00:04.055Z,94656.44
2023-05-01T11:02:30.416Z,94652.47
2023-05-01T11:04:57.122Z,94661.72
2023-05-01T11:07:23.798Z,94655.81
2023-05-01T11:09:50.216Z,94663.00
2023-05-01T11:12:16.527Z,94661.91
2023-05-01T11:14:42.845Z,94656.78
2023-05-01T11:17:09.157Z,94664.44
2023-05-01T11:19:35.462Z,94657.81
2023-05-01T11:22:01.789Z,94654.47
2023-05-01T11:24:28.119Z,94656.31
2023-05-01T11:26:54.442Z,94648.28
2023-05-01T11:29:20.745Z,94649.41
2023-05-01T11:31:47.112Z,94646.34
2023-05-01T11:34:13.417Z,94647.69
2023-05-01T11:36:39.739Z,94645.94
2023-05-01T11:39:06.056Z,94646.16
2023-05-01T11:41:32.388Z,94657.72
2023-05-01T11:43:58.714Z,94655.41
2023-05-01T11:46:25.167Z,94661.13
2023-05-01T11:48:51.565Z,94662.16
2023-05-01T11:51:17.868Z,94653.94
2023-05-01T11:53:44.181Z,94660.34
2023-05-01T11:56:19.480Z,94656.28
2023-05-01T11:58:52.098Z,94654.44
2023-05-01T12:01:18.423Z,94664.47
2023-05-01T12:03:44.829Z,94653.88
2023-05-01T12:06:11.287Z,94652.03
2023-05-01T12:08:37.660Z,94651.63
2023-05-01T12:11:04.051Z,94646.72
2023-05-01T12:13:30.412Z,94641.22
2023-05-01T12:15:56.735Z,94647.19
2023-05-01T12:18:23.133Z,94636.38
2023-05-01T12:20:49.489Z,94648.91
2023-05-01T12:23:15.808Z,94641.16
2023-05-01T12:25:42.125Z,94646.16
2023-05-01T12:28:08.460Z,94656.09
2023-05-01T12:30:34.825Z,94646.47
2023-05-01T12:33:01.214Z,94646.13
2023-05-01T12:35:27.570Z,94654.28
2023-05-01T12:37:53.873Z,94648.19
2023-05-01T12:40:20.179Z,94646.84
2023-05-01T12:42:46.501Z,94659.75
2023-05-01T12:45:12.831Z,94659.25
2023-05-01T12:47:39.159Z,94655.94
2023-05-01T12:50:05.493Z,94657.25
2023-05-01T12:52:31.802Z,94650.84
2023-05-01T12:54:58.283Z,94655.16
2023-05-01T12:57:24.888Z,94650.88
2023-05-01T12:59:51.212Z,94650.91
2023-05-01T13:02:17.667Z,94651.69
2023-05-01T13:04:44.049Z,94649.84
2023-05-01T13:07:10.351Z,94644.44
2023-05-01T13:09:36.654Z,94635.91
2023-05-01T13:12:02.968Z,94640.53
2023-05-01T13:14:29.311Z,94640.03
2023-05-01T13:16:55.632Z,94641.84
2023-05-01T13:19:21.969Z,94643.06
2023-05-01T13:21:48.287Z,94635.56
2023-05-01T13:24:14.603Z,94638.13
2023-05-01T13:26:40.918Z,94637.59
2023-05-01T13:29:07.269Z,94639.84
2023-05-01T13:31:33.635Z,94635.13
2023-05-01T13:33:59.997Z,94633.06
2023-05-01T13:36:27.231Z,94624.38
2023-05-01T13:38:53.795Z,94629.47
2023-05-01T13:41:20.122Z,94626.47
2023-05-01T13:43:46.425Z,94627.38
2023-05-01T13:46:12.774Z,94622.78
2023-05-01T13:48:39.131Z,94616.06
2023-05-01T13:51:05.461Z,94618.66
2023-05-01T13:53:31.791Z,94622.47
2023-05-01T13:55:58.141Z,94627.72
2023-05-01T13:58:24.443Z,94626.09
2023-05-01T14:00:50.825Z,94626.25
2023-05-01T14:03:17.249Z,94626.91
2023-05-01T14:05:43.613Z,94633.72
2023-05-01T14:08:10.009Z,94618.41
2023-05-01T14:10:36.333Z,94614.34
2023-05-01T14:13:02.644Z,94614.78
2023-05-01T14:15:28.995Z,94613.03
2023-05-01T14:17:55.377Z,94610.28
2023-05-01T14:20:21.713Z,94613.88
2023-05-01T14:22:48.091Z,94608.56
2023-05-01T14:25:14.429Z,94612.94
2023-05-01T14:27:40.753Z,94601.03
2023-05-01T14:30:07.070Z,94605.97
2023-05-01T14:32:33.491Z,94612.59
2023-05-01T14:34:59.964Z,94611.72
2023-05-01T14:37:26.406Z,94614.28
2023-05-01T14:39:52.761Z,94610.97
2023-05-01T14:42:19.074Z,94616.63
2023-05-01T14:44:45.380Z,94610.53
2023-05-01T14:47:11.700Z,94613.38
2023-05-01T14:49:38.022Z,94618.31
2023-05-01T14:52:04.332Z,94608.63
2023-05-01T14:54:30.662Z,94606.91
2023-05-01T14:56:56.999Z,94618.09
2023-05-01T14:59:23.317Z,94617.16
2023-05-01T15:01:49.706Z,94621.00
2023-05-01T15:04:16.208Z,94630.06
2023-05-01T15:06:42.684Z,94621.81
2023-05-01T15:09:09.009Z,94613.59
2023-05-01T15:11:35.338Z,94620.63
2023-05-01T15:14:01.673Z,94622.56
2023-05-01T15:16:28.057Z,94632.63
2023-05-01T15:18:54.459Z,94626.50
2023-05-01T15:21:20.774Z,94623.22
2023-05-01T15:23:47.090Z,94628.59
2023-05-01T15:26:13.425Z,94628.41
2023-05-01T15:28:39.750Z,94632.28
2023-05-01T15:31:06.051Z,94626.59
2023-05-01T15:33:32.409Z,94624.28
2023-05-01T15:35:58.756Z,94627.53
2023-05-01T15:38:25.070Z,94628.34
2023-05-01T15:40:51.379Z,94634.28
2023-05-01T15:43:17.701Z,94636.13
2023-05-01T15:45:44.066Z,94635.41
2023-05-01T15:48:10.510Z,94643.38
2023-05-01T15:50:36.871Z,94645.69
2023-05-01T15:53:03.186Z,94646.50
2023-05-01T15:55:29.475Z,94645.09
2023-05-01T15:57:55.770Z,94646.50
2023-05-01T16:00:22.090Z,94648.47
2023-05-01T16:02:48.524Z,94654.09
2023-05-01T16:05:14.912Z,94654.19
2023-05-01T16:07:41.214Z,94659.50
2023-05-01T16:10:07.543Z,94657.19
2023-05-01T16:12:33.856Z,94656.97
2023-05-01T16:15:00.155Z,94649.16
2023-05-01T16:17:26.516Z,94661.06
2023-05-01T16:19:52.896Z,94661.25
2023-05-01T16:22:19.220Z,94656.47
2023-05-01T16:24:45.551Z,94665.75
2023-05-01T16:27:11.867Z,94666.16
2023-05-01T16:29:38.199Z,94667.34
2023-05-01T16:32:04.575Z,94676.44
2023-05-01T16:34:30.965Z,94674.94
2023-05-01T16:36:57.288Z,94679.09
2023-05-01T16:39:23.633Z,94678.84
2023-05-01T16:41:49.969Z,94673.06
2023-05-01T16:44:16.309Z,94678.28
2023-05-01T16:46:42.748Z,94683.03
2023-05-01T16:49:09.129Z,94676.59
2023-05-01T16:51:35.455Z,94685.97
2023-05-01T16:54:01.757Z,94675.44
2023-05-01T16:56:28.118Z,94679.03
2023-05-01T16:58:54.442Z,94686.31
2023-05-01T17:01:20.780Z,94692.47
2023-05-01T17:03:47.139Z,94690.06
2023-05-01T17:06:13.532Z,94692.09
2023-05-01T17:08:39.868Z,94693.78
2023-05-01T17:11:06.202Z,94687.28
2023-05-01T17:13:32.513Z,94682.75
2023-05-01T17:15:58.829Z,94685.63
2023-05-01T17:18:25.154Z,94691.69
2023-05-01T17:20:51.469Z,94692.31
2023-05-01T17:23:17.799Z,94695.25
2023-05-01T17:25:44.147Z,94687.50
2023-05-01T17:28:10.471Z,94687.91
2023-05-01T17:30:36.786Z,94693.63
2023-05-01T17:33:03.198Z,94699.31
2023-05-01T17:35:29.584Z,94696.66
2023-05-01T17:37:55.888Z,94696.44
2023-05-01T17:40:22.230Z,94700.06
2023-05-01T17:42:48.585Z,94692.81
2023-05-01T17:45:14.891Z,94694.88
2023-05-01T17:47:41.312Z,94698.34
2023-05-01T17:50:07.745Z,94692.22
2023-05-01T17:52:34.061Z,94687.56
2023-05-01T17:55:00.366Z,94688.66
2023-05-01T17:57:26.699Z,94699.91
2023-05-01T17:59:53.035Z,94687.97
2023-05-01T18:02:19.449Z,94691.75
2023-05-01T18:04:45.822Z,94695.34
2023-05-01T18:07:12.235Z,94698.94
2023-05-01T18:09:38.556Z,94696.31
2023-05-01T18:12:04.853Z,94707.44
2023-05-01T18:14:31.155Z,94707.09
2023-05-01T18:16:57.529Z,94716.19
2023-05-01T18:19:23.922Z,94712.97
2023-05-01T18:21:56.287Z,94712.22
2023-05-01T18:24:22.611Z,94714.28
2023-05-01T18:26:49.014Z,94717.16
2023-05-01T18:29:15.343Z,94720.03
2023-05-01T18:31:41.665Z,94718.00
2023-05-01T18:34:08.044Z,94722.16
2023-05-01T18:36:34.362Z,94722.59
2023-05-01T18:39:00.674Z,94719.56
2023-05-01T18:41:27.012Z,94722.25
2023-05-01T18:43:56.375Z,94726.75
2023-05-01T18:46:24.119Z,94721.06
2023-05-01T18:48:50.453Z,94723.09
2023-05-01T18:51:16.766Z,94723.09
2023-05-01T18:53:43.068Z,94723.72
2023-05-01T18:56:09.442Z,94728.44
2023-05-01T18:58:35.805Z,94729.88
2023-05-01T19:01:02.121Z,94734.56
2023-05-01T19:03:28.443Z,94737.59
2023-05-01T19:05:54.766Z,94739.03
2023-05-01T19:08:21.092Z,94742.69
2023-05-01T19:10:47.434Z,94744.75
2023-05-01T19:13:13.756Z,94739.22
2023-05-01T19:15:40.110Z,94740.22
2023-05-01T19:18:06.506Z,94753.06
2023-05-01T19:20:32.872Z,94752.03
2023-05-01T19:22:59.195Z,94759.59
2023-05-01T19:25:25.498Z,94762.59
2023-05-01T19:27:51.831Z,94760.34
2023-05-01T19:30:18.145Z,94769.50
2023-05-01T19:32:44.479Z,94770.31
2023-05-01T19:35:11.054Z,94765.63
2023-05-01T19:37:37.428Z,94769.28
2023-05-01T19:40:03.771Z,94773.56
2023-05-01T19:42:30.085Z,94771.28
2023-05-01T19:44:56.398Z,94778.41
2023-05-01T19:47:22.787Z,94779.03
2023-05-01T19:49:49.174Z,94779.44
2023-05-01T19:52:15.477Z,94774.56
2023-05-01T19:54:41.781Z,94788.63
2023-05-01T19:57:08.092Z,94792.66
2023-05-01T19:59:34.409Z,94799.59
2023-05-01T20:02:01.436Z,94811.00
2023-05-01T20:04:28.011Z,94815.47
2023-05-01T20:06:54.479Z,94817.41
2023-05-01T20:09:20.847Z,94821.22
2023-05-01T20:11:47.181Z,94813.66
2023-05-01T20:14:13.512Z,94821.56
2023-05-01T20:16:39.884Z,94818.47
2023-05-01T20:19:06.230Z,94820.94
2023-05-01T20:21:32.551Z,94838.84
2023-05-01T20:23:58.904Z,94832.66
2023-05-01T20:26:25.211Z,94839.78
2023-05-01T20:28:51.527Z,94840.97
2023-05-01T20:31:17.914Z,94841.41
2023-05-01T20:33:44.290Z,94841.66
2023-05-01T20:36:10.609Z,94844.72
2023-05-01T20:38:36.940Z,94845.69
2023-05-01T20:41:03.251Z,94847.78
2023-05-01T20:43:29.572Z,94850.75
2023-05-01T20:45:56.006Z,94854.16
2023-05-01T20:48:22.369Z,94859.94
2023-05-01T20:50:48.748Z,94865.28
2023-05-01T20:53:15.070Z,94857.34
2023-05-01T20:55:41.401Z,94858.38
2023-05-01T20:58:07.737Z,94860.88
2023-05-01T21:00:34.071Z,94866.81
2023-05-01T21:03:00.507Z,94860.66
2023-05-01T21:05:26.942Z,94866.78
2023-05-01T21:07:53.259Z,94864.19
2023-05-01T21:10:19.568Z,94873.81
2023-05-01T21:12:45.866Z,94884.22
2023-05-01T21:15:12.165Z,94877.69
2023-05-01T21:17:38.506Z,94878.56
2023-05-01T21:20:04.873Z,94882.63
2023-05-01T21:22:31.187Z,94877.09
2023-05-01T21:24:57.533Z,94878.19
2023-05-01T21:27:23.842Z,94880.81
2023-05-01T21:29:50.161Z,94879.91
2023-05-01T21:32:16.482Z,94877.84
2023-05-01T21:34:42.805Z,94873.13
2023-05-01T21:37:09.128Z,94870.44
2023-05-01T21:39:35.457Z,94872.03
2023-05-01T21:42:01.772Z,94873.81
2023-05-01T21:44:28.086Z,94879.91
2023-05-01T21:46:54.445Z,94876.19
2023-05-01T21:49:20.819Z,94866.16
2023-05-01T21:51:47.114Z,94865.88
2023-05-01T21:54:13.424Z,94866.34
2023-05-01T21:56:39.756Z,94867.53
2023-05-01T21:59:06.092Z,94858.34
2023-05-01T22:01:32.504Z,94861.81
2023-05-01T22:03:58.948Z,94850.59
2023-05-01T22:06:25.365Z,94847.09
2023-05-01T22:08:51.702Z,94858.19
2023-05-01T22:11:18.033Z,94860.84
2023-05-01T22:13:44.353Z,94864.06
2023-05-01T22:16:10.720Z,94865.16
2023-05-01T22:18:37.042Z,94864.88
2023-05-01T22:21:03.411Z,94863.06
2023-05-01T22:23:29.737Z,94869.16
2023-05-01T22:25:56.060Z,94871.59
2023-05-01T22:28:22.798Z,94869.91
2023-05-01T22:30:49.159Z,94872.28
2023-05-01T22:33:15.502Z,94867.63
2023-05-01T22:35:41.886Z,94868.53
2023-05-01T22:38:08.214Z,94870.72
2023-05-01T22:40:34.547Z,94873.53
2023-05-01T22:43:00.869Z,94866.81
2023-05-01T22:45:27.175Z,94865.06
2023-05-01T22:47:53.530Z,94869.28
2023-05-01T22:50:19.902Z,94878.66
2023-05-01T22:52:46.626Z,94873.63
2023-05-01T22:55:13.060Z,94874.38
2023-05-01T22:57:39.404Z,94876.06
2023-05-01T23:00:05.822Z,94879.03
2023-05-01T23:02:32.235Z,94879.97
2023-05-01T23:04:58.643Z,94876.69
2023-05-01T23:07:24.961Z,94881.34
2023-05-01T23:09:51.291Z,94874.69
2023-05-01T23:12:17.620Z,94876.88
2023-05-01T23:14:43.949Z,94874.88
2023-05-01T23:17:10.271Z,94872.91
2023-05-01T23:19:36.575Z,94876.34
2023-05-01T23:22:02.893Z,94871.91
2023-05-01T23:24:29.199Z,94865.53
2023-05-01T23:26:55.504Z,94875.88
2023-05-01T23:29:21.799Z,94874.25
2023-05-01T23:31:48.131Z,94874.53
2023-05-01T23:34:14.457Z,94879.72
2023-05-01T23:36:40.758Z,94877.81
2023-05-01T23:39:07.068Z,94870.66
2023-05-01T23:41:33.391Z,94879.47
2023-05-01T23:43:59.708Z,94880.38
2023-05-01T23:46:26.057Z,94878.97
2023-05-01T23:48:52.423Z,94880.53
2023-05-01T23:51:18.755Z,94876.00
2023-05-01T23:53:45.063Z,94881.56
2023-05-01T23:56:11.386Z,94883.16
2023-05-01T23:58:37.727Z,94877.25
